logo
Rechercher aéroport 
image banner adimage banner adimage banner ad
image banner ad

NVSG - Longana

Situé à , Vanuatu

ICAO - NVSG, IATA - LOD

Données fournies par Airmate  

Information générale

Coordonnées: S15°18'17" E167°58'8"
Élévation : 126 feet MSL.
 
Voir autres Aéroports à Penama

Données opérationnelles

Special qualification required
Heure actuelle UTC:
Heure actuelle locale:
Météo
METAR: NVSG 230000Z VRB02KT 9999 FEW020 30/26 Q1012
TAF: TAF NVSG 222300Z 2300/2324 12006KT 9999 BKN020 INTER 2300/2306 8000 SHRA FEW008 BKN018 OVC040
Voir NOTAMs / SUP AIP / TFR affectant cet aéroport [VIEW]
Fréquences de communication: [VIEW]

Pistes:

Identifiant RWYQFULongueur (ft)Largeur (ft)SurfaceLDA (ft)
04397675Grass
22397675Grass

Coordonnées de l'aéroport

Adresse: Vanuatu

Vue satellite de NVSG